sensor_id;sensor_type;location;lat;lon;timestamp;pressure;altitude;pressure_sealevel;temperature;humidity
4972;BME280;2501;51.214;6.768;2023-02-24T01:04:48;101138.81;;;5.13;99.92
4972;BME280;2501;51.214;6.768;2023-02-24T01:07:17;101141.47;;;5.15;100.00
4972;BME280;2501;51.214;6.768;2023-02-24T01:09:49;101127.66;;;5.16;100.00
4972;BME280;2501;51.214;6.768;2023-02-24T01:12:18;101135.91;;;5.30;100.00
4972;BME280;2501;51.214;6.768;2023-02-24T01:14:59;101133.34;;;5.31;100.00
4972;BME280;2501;51.214;6.768;2023-02-24T01:17:30;101134.19;;;5.30;100.00
4972;BME280;2501;51.214;6.768;2023-02-24T01:20:01;101138.56;;;5.31;100.00
4972;BME280;2501;51.214;6.768;2023-02-24T01:22:40;101130.34;;;5.19;100.00
4972;BME280;2501;51.214;6.768;2023-02-24T01:25:08;101130.84;;;5.09;100.00
4972;BME280;2501;51.214;6.768;2023-02-24T01:27:37;101122.50;;;5.17;100.00
4972;BME280;2501;51.214;6.768;2023-02-24T01:30:07;101125.97;;;5.18;100.00
4972;BME280;2501;51.214;6.768;2023-02-24T01:32:40;101125.34;;;5.25;100.00
4972;BME280;2501;51.214;6.768;2023-02-24T01:35:11;101123.78;;;5.30;100.00
4972;BME280;2501;51.214;6.768;2023-02-24T01:37:40;101124.09;;;5.14;100.00
4972;BME280;2501;51.214;6.768;2023-02-24T01:40:11;101128.78;;;4.99;100.00
4972;BME280;2501;51.214;6.768;2023-02-24T01:42:43;101127.03;;;4.98;100.00
4972;BME280;2501;51.214;6.768;2023-02-24T01:45:19;101123.69;;;5.02;100.00
4972;BME280;2501;51.214;6.768;2023-02-24T01:47:50;101114.97;;;5.00;99.80
4972;BME280;2501;51.214;6.768;2023-02-24T01:50:22;101107.13;;;4.74;99.34
4972;BME280;2501;51.214;6.768;2023-02-24T01:52:54;101098.25;;;4.93;99.29
4972;BME280;2501;51.214;6.768;2023-02-24T01:55:26;101100.59;;;4.85;98.86
4972;BME280;2501;51.214;6.768;2023-02-24T01:57:59;101093.94;;;4.94;98.28
4972;BME280;2501;51.214;6.768;2023-02-24T02:00:29;101095.69;;;4.69;97.91
4972;BME280;2501;51.214;6.768;2023-02-24T02:03:18;101090.09;;;4.82;97.78
4972;BME280;2501;51.214;6.768;2023-02-24T02:05:51;101096.19;;;4.83;97.29
4972;BME280;2501;51.214;6.768;2023-02-24T02:08:21;101097.63;;;4.75;97.80
4972;BME280;2501;51.214;6.768;2023-02-24T02:10:51;101096.22;;;4.59;98.10
4972;BME280;2501;51.214;6.768;2023-02-24T02:13:24;101088.78;;;4.70;98.47
4972;BME280;2501;51.214;6.768;2023-02-24T02:16:02;101088.72;;;4.68;99.03
4972;BME280;2501;51.214;6.768;2023-02-24T02:18:41;101091.66;;;4.77;99.33
4972;BME280;2501;51.214;6.768;2023-02-24T02:24:34;101074.00;;;4.67;99.62
4972;BME280;2501;51.214;6.768;2023-02-24T02:27:16;101073.13;;;4.43;100.00
4972;BME280;2501;51.214;6.768;2023-02-24T02:30:21;101054.88;;;4.65;100.00
4972;BME280;2501;51.214;6.768;2023-02-24T02:33:18;101054.94;;;4.43;99.65
4972;BME280;2501;51.214;6.768;2023-02-24T02:36:04;101057.88;;;4.28;99.27
4972;BME280;2501;51.214;6.768;2023-02-24T02:38:41;101048.28;;;4.51;99.21
4972;BME280;2501;51.214;6.768;2023-02-24T02:41:20;101047.38;;;4.49;99.06
4972;BME280;2501;51.214;6.768;2023-02-24T02:43:52;101037.94;;;4.27;98.27
4972;BME280;2501;51.214;6.768;2023-02-24T02:46:29;101034.47;;;4.52;98.04
4972;BME280;2501;51.214;6.768;2023-02-24T02:49:08;101029.28;;;4.52;97.18
4972;BME280;2501;51.214;6.768;2023-02-24T02:51:47;101023.25;;;4.53;96.74
4972;BME280;2501;51.214;6.768;2023-02-24T02:54:21;101027.97;;;4.39;96.14
4972;BME280;2501;51.214;6.768;2023-02-24T02:56:56;101029.13;;;4.47;96.23
4972;BME280;2501;51.214;6.768;2023-02-24T02:59:28;101025.31;;;4.38;96.18
4972;BME280;2501;51.214;6.768;2023-02-24T03:02:00;101015.03;;;4.41;96.52
4972;BME280;2501;51.214;6.768;2023-02-24T03:04:38;101007.72;;;4.54;96.13
4972;BME280;2501;51.214;6.768;2023-02-24T03:07:12;101006.25;;;4.37;94.93
4972;BME280;2501;51.214;6.768;2023-02-24T03:09:45;101025.25;;;4.36;94.78
4972;BME280;2501;51.214;6.768;2023-02-24T03:12:17;101007.84;;;4.58;94.75
4972;BME280;2501;51.214;6.768;2023-02-24T03:14:48;100999.63;;;4.45;94.88
4972;BME280;2501;51.214;6.768;2023-02-24T03:17:22;100996.88;;;4.41;95.59
4972;BME280;2501;51.214;6.768;2023-02-24T03:19:55;101000.47;;;4.44;95.99
4972;BME280;2501;51.214;6.768;2023-02-24T03:22:31;100999.75;;;4.48;96.45
4972;BME280;2501;51.214;6.768;2023-02-24T03:25:02;100988.66;;;4.29;96.70
4972;BME280;2501;51.214;6.768;2023-02-24T03:27:35;100996.63;;;4.35;97.16
4972;BME280;2501;51.214;6.768;2023-02-24T03:30:13;100998.53;;;4.39;96.79
4972;BME280;2501;51.214;6.768;2023-02-24T03:32:48;100991.13;;;4.49;96.61
4972;BME280;2501;51.214;6.768;2023-02-24T03:35:21;100993.13;;;4.33;95.90
4972;BME280;2501;51.214;6.768;2023-02-24T03:37:54;100990.63;;;4.36;95.77
4972;BME280;2501;51.214;6.768;2023-02-24T03:40:24;100993.50;;;4.43;95.53
4972;BME280;2501;51.214;6.768;2023-02-24T03:43:01;100990.06;;;4.44;94.99
4972;BME280;2501;51.214;6.768;2023-02-24T03:45:34;100987.00;;;4.31;95.26
4972;BME280;2501;51.214;6.768;2023-02-24T03:48:03;100979.94;;;4.27;95.60
4972;BME280;2501;51.214;6.768;2023-02-24T03:50:32;100978.22;;;4.27;95.53
4972;BME280;2501;51.214;6.768;2023-02-24T03:53:15;100983.91;;;4.17;95.40
4972;BME280;2501;51.214;6.768;2023-02-24T03:56:00;100978.16;;;4.26;95.41
4972;BME280;2501;51.214;6.768;2023-02-24T03:58:40;100980.09;;;4.31;95.19
4972;BME280;2501;51.214;6.768;2023-02-24T04:01:16;100978.22;;;4.27;95.34
4972;BME280;2501;51.214;6.768;2023-02-24T04:03:54;100973.50;;;4.15;95.72
4972;BME280;2501;51.214;6.768;2023-02-24T04:06:31;100980.22;;;4.10;96.07
4972;BME280;2501;51.214;6.768;2023-02-24T04:09:07;100974.84;;;4.30;96.11
4972;BME280;2501;51.214;6.768;2023-02-24T04:11:43;100975.44;;;4.23;95.77
4972;BME280;2501;51.214;6.768;2023-02-24T04:14:16;100978.53;;;4.36;95.12
4972;BME280;2501;51.214;6.768;2023-02-24T04:16:53;100970.22;;;4.21;94.61
4972;BME280;2501;51.214;6.768;2023-02-24T04:19:30;100978.72;;;4.17;94.87
4972;BME280;2501;51.214;6.768;2023-02-24T04:22:03;100963.00;;;4.12;94.77
4972;BME280;2501;51.214;6.768;2023-02-24T04:24:38;100965.06;;;4.23;94.29
4972;BME280;2501;51.214;6.768;2023-02-24T04:27:09;100974.63;;;4.00;94.04
4972;BME280;2501;51.214;6.768;2023-02-24T04:29:42;100969.56;;;4.03;93.83
4972;BME280;2501;51.214;6.768;2023-02-24T04:32:15;100964.75;;;4.13;93.02
4972;BME280;2501;51.214;6.768;2023-02-24T04:34:45;100961.22;;;4.11;92.35
4972;BME280;2501;51.214;6.768;2023-02-24T04:37:14;100971.28;;;4.02;92.14
4972;BME280;2501;51.214;6.768;2023-02-24T04:39:45;100962.78;;;4.06;90.96
4972;BME280;2501;51.214;6.768;2023-02-24T04:42:15;100956.97;;;4.13;90.90
4972;BME280;2501;51.214;6.768;2023-02-24T04:44:45;100950.72;;;4.08;90.54
4972;BME280;2501;51.214;6.768;2023-02-24T04:47:14;100951.28;;;4.00;90.66
4972;BME280;2501;51.214;6.768;2023-02-24T04:49:42;100942.34;;;4.15;90.73
4972;BME280;2501;51.214;6.768;2023-02-24T04:52:11;100943.19;;;3.91;90.74
4972;BME280;2501;51.214;6.768;2023-02-24T04:54:40;100937.41;;;3.99;90.77
4972;BME280;2501;51.214;6.768;2023-02-24T04:57:11;100933.19;;;4.27;89.60
4972;BME280;2501;51.214;6.768;2023-02-24T04:59:40;100930.38;;;3.95;89.51
4972;BME280;2501;51.214;6.768;2023-02-24T05:02:08;100937.56;;;4.28;89.37
4972;BME280;2501;51.214;6.768;2023-02-24T05:04:37;100933.25;;;4.28;89.21
4972;BME280;2501;51.214;6.768;2023-02-24T05:07:06;100929.88;;;4.31;88.71
4972;BME280;2501;51.214;6.768;2023-02-24T05:09:37;100920.00;;;4.46;88.59
4972;BME280;2501;51.214;6.768;2023-02-24T05:12:05;100919.16;;;4.22;88.46
4972;BME280;2501;51.214;6.768;2023-02-24T05:14:36;100923.84;;;4.06;88.88
4972;BME280;2501;51.214;6.768;2023-02-24T05:17:06;100916.50;;;3.95;89.71
4972;BME280;2501;51.214;6.768;2023-02-24T05:19:37;100918.28;;;3.96;90.22
4972;BME280;2501;51.214;6.768;2023-02-24T05:22:29;100915.28;;;3.85;90.69
4972;BME280;2501;51.214;6.768;2023-02-24T05:24:57;100915.34;;;3.87;91.57
4972;BME280;2501;51.214;6.768;2023-02-24T05:27:26;100913.09;;;3.96;92.23
4972;BME280;2501;51.214;6.768;2023-02-24T05:29:57;100905.97;;;3.90;92.95
4972;BME280;2501;51.214;6.768;2023-02-24T05:32:26;100907.44;;;3.83;92.86
4972;BME280;2501;51.214;6.768;2023-02-24T05:34:54;100909.44;;;3.91;92.72
4972;BME280;2501;51.214;6.768;2023-02-24T05:37:23;100902.44;;;3.88;92.54
4972;BME280;2501;51.214;6.768;2023-02-24T05:39:54;100909.44;;;3.91;92.25
4972;BME280;2501;51.214;6.768;2023-02-24T05:42:23;100902.53;;;3.91;92.42
4972;BME280;2501;51.214;6.768;2023-02-24T05:44:52;100901.09;;;3.99;92.09
4972;BME280;2501;51.214;6.768;2023-02-24T05:47:23;100896.53;;;4.17;91.36
4972;BME280;2501;51.214;6.768;2023-02-24T05:49:52;100894.63;;;4.12;90.79
4972;BME280;2501;51.214;6.768;2023-02-24T05:52:23;100883.66;;;4.20;90.54
4972;BME280;2501;51.214;6.768;2023-02-24T05:54:51;100888.78;;;4.19;90.03
4972;BME280;2501;51.214;6.768;2023-02-24T05:57:20;100885.06;;;4.11;90.29
4972;BME280;2501;51.214;6.768;2023-02-24T05:59:50;100875.59;;;4.38;90.52
4972;BME280;2501;51.214;6.768;2023-02-24T06:02:22;100878.28;;;4.41;90.60
4972;BME280;2501;51.214;6.768;2023-02-24T06:05:01;100882.94;;;4.25;89.42
4972;BME280;2501;51.214;6.768;2023-02-24T06:07:33;100878.13;;;4.37;89.30
4972;BME280;2501;51.214;6.768;2023-02-24T06:10:02;100875.47;;;4.35;88.92
4972;BME280;2501;51.214;6.768;2023-02-24T06:12:34;100864.22;;;4.35;88.92
4972;BME280;2501;51.214;6.768;2023-02-24T06:15:05;100871.94;;;4.32;88.82
4972;BME280;2501;51.214;6.768;2023-02-24T06:17:36;100861.09;;;4.45;88.50
4972;BME280;2501;51.214;6.768;2023-02-24T06:20:06;100854.91;;;4.41;87.55
4972;BME280;2501;51.214;6.768;2023-02-24T06:22:40;100854.91;;;4.41;87.30
4972;BME280;2501;51.214;6.768;2023-02-24T06:25:09;100851.34;;;4.38;87.50
4972;BME280;2501;51.214;6.768;2023-02-24T06:27:38;100848.88;;;4.15;87.48
4972;BME280;2501;51.214;6.768;2023-02-24T06:30:08;100854.47;;;4.28;87.50
4972;BME280;2501;51.214;6.768;2023-02-24T06:32:39;100851.44;;;4.41;86.93
4972;BME280;2501;51.214;6.768;2023-02-24T06:35:09;100847.19;;;4.17;86.33
4972;BME280;2501;51.214;6.768;2023-02-24T06:37:37;100850.88;;;4.51;85.98
4972;BME280;2501;51.214;6.768;2023-02-24T06:40:09;100851.81;;;4.53;84.71
4972;BME280;2501;51.214;6.768;2023-02-24T06:42:43;100845.97;;;4.33;84.99
4972;BME280;2501;51.214;6.768;2023-02-24T06:45:14;100847.56;;;4.28;85.38
4972;BME280;2501;51.214;6.768;2023-02-24T06:47:46;100848.41;;;4.27;85.80
4972;BME280;2501;51.214;6.768;2023-02-24T06:50:15;100853.66;;;4.29;85.93
4972;BME280;2501;51.214;6.768;2023-02-24T06:52:44;100840.06;;;4.37;85.90
4972;BME280;2501;51.214;6.768;2023-02-24T06:55:14;100838.88;;;4.54;85.93
4972;BME280;2501;51.214;6.768;2023-02-24T06:57:53;100833.59;;;4.51;85.33
4972;BME280;2501;51.214;6.768;2023-02-24T07:00:30;100840.84;;;4.35;85.62
4972;BME280;2501;51.214;6.768;2023-02-24T07:03:09;100842.81;;;4.42;85.52
4972;BME280;2501;51.214;6.768;2023-02-24T07:05:44;100840.28;;;4.43;85.45
4972;BME280;2501;51.214;6.768;2023-02-24T07:08:16;100836.00;;;4.45;86.50
4972;BME280;2501;51.214;6.768;2023-02-24T07:10:51;100828.78;;;4.64;86.12
4972;BME280;2501;51.214;6.768;2023-02-24T07:13:20;100827.34;;;4.45;87.01
4972;BME280;2501;51.214;6.768;2023-02-24T07:15:49;100827.44;;;4.48;87.36
4972;BME280;2501;51.214;6.768;2023-02-24T07:18:20;100826.00;;;4.58;86.48
4972;BME280;2501;51.214;6.768;2023-02-24T07:20:50;100826.16;;;4.62;85.57
4972;BME280;2501;51.214;6.768;2023-02-24T07:23:19;100822.94;;;4.71;84.21
4972;BME280;2501;51.214;6.768;2023-02-24T07:25:47;100822.06;;;4.99;82.77
4972;BME280;2501;51.214;6.768;2023-02-24T07:28:17;100819.66;;;5.06;80.98
4972;BME280;2501;51.214;6.768;2023-02-24T07:30:47;100812.22;;;4.88;80.43
4972;BME280;2501;51.214;6.768;2023-02-24T07:33:17;100809.31;;;4.78;79.55
4972;BME280;2501;51.214;6.768;2023-02-24T07:35:51;100809.78;;;4.65;80.42
4972;BME280;2501;51.214;6.768;2023-02-24T07:38:20;100809.50;;;4.84;80.90
4972;BME280;2501;51.214;6.768;2023-02-24T07:40:50;100799.44;;;5.26;80.60
4972;BME280;2501;51.214;6.768;2023-02-24T07:43:19;100796.47;;;5.12;80.15
4972;BME280;2501;51.214;6.768;2023-02-24T07:45:48;100790.09;;;5.03;80.11
4972;BME280;2501;51.214;6.768;2023-02-24T07:48:17;100783.59;;;5.17;79.67
4972;BME280;2501;51.214;6.768;2023-02-24T07:50:45;100779.16;;;5.13;79.63
4972;BME280;2501;51.214;6.768;2023-02-24T07:53:17;100784.00;;;5.01;79.79
4972;BME280;2501;51.214;6.768;2023-02-24T07:55:47;100773.16;;;5.15;79.92
4972;BME280;2501;51.214;6.768;2023-02-24T07:58:17;100774.06;;;5.17;79.31
4972;BME280;2501;51.214;6.768;2023-02-24T08:00:47;100772.50;;;5.24;79.94
4972;BME280;2501;51.214;6.768;2023-02-24T08:03:33;100769.28;;;5.33;79.51
4972;BME280;2501;51.214;6.768;2023-02-24T08:06:06;100771.63;;;5.23;79.28
4972;BME280;2501;51.214;6.768;2023-02-24T08:08:43;100768.19;;;5.24;79.79
4972;BME280;2501;51.214;6.768;2023-02-24T08:11:23;100759.28;;;5.15;79.64
4972;BME280;2501;51.214;6.768;2023-02-24T08:13:52;100766.94;;;4.80;79.44
4972;BME280;2501;51.214;6.768;2023-02-24T08:16:23;100758.66;;;4.94;79.93
4972;BME280;2501;51.214;6.768;2023-02-24T08:19:03;100758.59;;;5.22;79.81
4972;BME280;2501;51.214;6.768;2023-02-24T08:21:32;100757.41;;;5.11;80.12
4972;BME280;2501;51.214;6.768;2023-02-24T08:24:12;100753.69;;;5.01;80.40
4972;BME280;2501;51.214;6.768;2023-02-24T08:26:44;100748.34;;;5.28;79.30
4972;BME280;2501;51.214;6.768;2023-02-24T08:29:28;100745.94;;;5.34;80.15
4972;BME280;2501;51.214;6.768;2023-02-24T08:32:04;100739.88;;;5.04;79.54
4972;BME280;2501;51.214;6.768;2023-02-24T08:34:33;100735.66;;;4.77;81.60
4972;BME280;2501;51.214;6.768;2023-02-24T08:37:02;100731.28;;;5.06;81.15
4972;BME280;2501;51.214;6.768;2023-02-24T08:39:33;100723.88;;;5.53;78.97
4972;BME280;2501;51.214;6.768;2023-02-24T08:42:02;100714.19;;;5.47;78.29
4972;BME280;2501;51.214;6.768;2023-02-24T08:44:32;100710.34;;;5.66;77.20
4972;BME280;2501;51.214;6.768;2023-02-24T08:47:02;100709.75;;;5.43;76.32
4972;BME280;2501;51.214;6.768;2023-02-24T08:49:32;100707.78;;;5.68;75.96
4972;BME280;2501;51.214;6.768;2023-02-24T08:52:03;100712.81;;;5.62;75.40
4972;BME280;2501;51.214;6.768;2023-02-24T08:54:34;100713.88;;;5.68;75.13
4972;BME280;2501;51.214;6.768;2023-02-24T08:57:12;100703.88;;;5.50;74.91
4972;BME280;2501;51.214;6.768;2023-02-24T08:59:42;100702.88;;;5.45;74.81
4972;BME280;2501;51.214;6.768;2023-02-24T09:02:16;100695.31;;;5.56;75.05
4972;BME280;2501;51.214;6.768;2023-02-24T09:04:53;100694.41;;;5.21;74.88
4972;BME280;2501;51.214;6.768;2023-02-24T09:07:24;100696.81;;;5.46;74.61
4972;BME280;2501;51.214;6.768;2023-02-24T09:09:55;100680.00;;;5.67;73.83
4972;BME280;2501;51.214;6.768;2023-02-24T09:12:26;100687.47;;;5.54;74.19
4972;BME280;2501;51.214;6.768;2023-02-24T09:14:56;100684.38;;;5.68;73.39
4972;BME280;2501;51.214;6.768;2023-02-24T09:17:27;100683.53;;;5.69;71.66
4972;BME280;2501;51.214;6.768;2023-02-24T09:20:15;100682.63;;;5.34;72.16
4972;BME280;2501;51.214;6.768;2023-02-24T09:23:03;100686.53;;;5.16;72.64
4972;BME280;2501;51.214;6.768;2023-02-24T09:25:37;100674.63;;;5.26;72.97
4972;BME280;2501;51.214;6.768;2023-02-24T09:28:11;100671.84;;;5.53;71.55
4972;BME280;2501;51.214;6.768;2023-02-24T09:30:44;100664.03;;;5.87;70.43
4972;BME280;2501;51.214;6.768;2023-02-24T09:33:27;100661.63;;;5.26;70.45
4972;BME280;2501;51.214;6.768;2023-02-24T09:36:05;100654.97;;;5.37;70.04
4972;BME280;2501;51.214;6.768;2023-02-24T09:38:39;100658.34;;;5.33;69.78
4972;BME280;2501;51.214;6.768;2023-02-24T09:41:28;100663.22;;;5.54;68.73
4972;BME280;2501;51.214;6.768;2023-02-24T09:44:26;100662.88;;;5.42;67.96
4972;BME280;2501;51.214;6.768;2023-02-24T09:47:02;100659.31;;;5.37;68.22
4972;BME280;2501;51.214;6.768;2023-02-24T09:49:42;100648.28;;;5.47;68.49
4972;BME280;2501;51.214;6.768;2023-02-24T09:52:14;100637.22;;;5.55;67.91
4972;BME280;2501;51.214;6.768;2023-02-24T09:54:46;100635.88;;;5.35;67.47
4972;BME280;2501;51.214;6.768;2023-02-24T09:57:39;100637.69;;;5.39;67.94
4972;BME280;2501;51.214;6.768;2023-02-24T10:00:30;100626.00;;;5.58;67.41
4972;BME280;2501;51.214;6.768;2023-02-24T10:03:12;100627.06;;;5.66;67.78
4972;BME280;2501;51.214;6.768;2023-02-24T10:06:13;100617.50;;;5.65;67.05
4972;BME280;2501;51.214;6.768;2023-02-24T10:08:49;100620.13;;;5.65;66.49
4972;BME280;2501;51.214;6.768;2023-02-24T10:11:21;100619.28;;;5.66;66.53
4972;BME280;2501;51.214;6.768;2023-02-24T10:14:02;100622.06;;;5.39;67.13
4972;BME280;2501;51.214;6.768;2023-02-24T10:16:38;100621.16;;;5.36;67.73
4972;BME280;2501;51.214;6.768;2023-02-24T10:19:28;100607.84;;;5.25;68.85
4972;BME280;2501;51.214;6.768;2023-02-24T10:22:02;100602.72;;;5.28;68.60
4972;BME280;2501;51.214;6.768;2023-02-24T10:24:37;100592.44;;;5.69;68.05
4972;BME280;2501;51.214;6.768;2023-02-24T10:27:14;100594.91;;;5.63;66.86
4972;BME280;2501;51.214;6.768;2023-02-24T10:29:59;100586.09;;;5.57;67.78
4972;BME280;2501;51.214;6.768;2023-02-24T10:32:42;100584.41;;;5.59;68.50
4972;BME280;2501;51.214;6.768;2023-02-24T10:35:17;100579.28;;;5.63;68.48
4972;BME280;2501;51.214;6.768;2023-02-24T10:37:46;100570.22;;;5.45;69.07
4972;BME280;2501;51.214;6.768;2023-02-24T10:40:17;100574.34;;;5.36;69.75
4972;BME280;2501;51.214;6.768;2023-02-24T10:43:02;100570.56;;;5.60;70.28
4972;BME280;2501;51.214;6.768;2023-02-24T10:45:39;100566.47;;;5.72;69.20
4972;BME280;2501;51.214;6.768;2023-02-24T10:48:15;100566.50;;;5.34;70.17
4972;BME280;2501;51.214;6.768;2023-02-24T10:50:50;100562.28;;;5.41;70.55
4972;BME280;2501;51.214;6.768;2023-02-24T10:53:22;100560.50;;;5.38;71.37
4972;BME280;2501;51.214;6.768;2023-02-24T10:56:01;100560.66;;;5.44;71.63
4972;BME280;2501;51.214;6.768;2023-02-24T10:59:10;100565.09;;;5.12;72.74
4972;BME280;2501;51.214;6.768;2023-02-24T11:02:17;100558.16;;;5.49;73.17
4972;BME280;2501;51.214;6.768;2023-02-24T11:04:59;100549.19;;;5.36;73.50
4972;BME280;2501;51.214;6.768;2023-02-24T11:08:08;100551.06;;;5.07;75.61
4972;BME280;2501;51.214;6.768;2023-02-24T11:10:41;100544.47;;;4.85;78.55
4972;BME280;2501;51.214;6.768;2023-02-24T11:13:18;100540.69;;;5.07;77.31
4972;BME280;2501;51.214;6.768;2023-02-24T11:16:00;100531.09;;;5.05;77.69
4972;BME280;2501;51.214;6.768;2023-02-24T11:18:45;100535.22;;;4.97;78.31
4972;BME280;2501;51.214;6.768;2023-02-24T11:21:17;100526.22;;;4.82;78.68
4972;BME280;2501;51.214;6.768;2023-02-24T11:23:49;100520.22;;;4.86;79.64
4972;BME280;2501;51.214;6.768;2023-02-24T11:26:21;100518.88;;;4.66;80.08
4972;BME280;2501;51.214;6.768;2023-02-24T11:29:01;100514.22;;;4.54;82.42
4972;BME280;2501;51.214;6.768;2023-02-24T11:31:47;100507.59;;;4.66;83.00
4972;BME280;2501;51.214;6.768;2023-02-24T11:34:31;100508.97;;;4.53;85.79
4972;BME280;2501;51.214;6.768;2023-02-24T11:37:11;100507.94;;;4.13;86.53
4972;BME280;2501;51.214;6.768;2023-02-24T11:39:51;100509.69;;;4.14;87.08
4972;BME280;2501;51.214;6.768;2023-02-24T11:42:25;100499.47;;;4.53;86.36
4972;BME280;2501;51.214;6.768;2023-02-24T11:45:00;100491.41;;;4.43;86.27
4972;BME280;2501;51.214;6.768;2023-02-24T11:47:34;100479.56;;;4.54;85.44
4972;BME280;2501;51.214;6.768;2023-02-24T11:50:28;100486.84;;;4.34;86.02
4972;BME280;2501;51.214;6.768;2023-02-24T11:53:02;100473.75;;;4.30;87.09
4972;BME280;2501;51.214;6.768;2023-02-24T11:55:35;100466.94;;;4.35;89.03
4972;BME280;2501;51.214;6.768;2023-02-24T11:58:12;100460.47;;;4.52;89.45
4972;BME280;2501;51.214;6.768;2023-02-24T12:00:50;100449.06;;;4.45;89.60
4972;BME280;2501;51.214;6.768;2023-02-24T12:03:26;100453.38;;;4.45;89.32
4972;BME280;2501;51.214;6.768;2023-02-24T12:06:07;100448.91;;;4.39;90.51
4972;BME280;2501;51.214;6.768;2023-02-24T12:08:40;100441.16;;;4.41;90.01
4972;BME280;2501;51.214;6.768;2023-02-24T12:11:14;100443.75;;;4.08;90.09
4972;BME280;2501;51.214;6.768;2023-02-24T12:13:51;100440.81;;;4.27;91.35
4972;BME280;2501;51.214;6.768;2023-02-24T12:16:24;100424.78;;;4.43;90.90
4972;BME280;2501;51.214;6.768;2023-02-24T12:18:58;100423.59;;;4.31;91.40
4972;BME280;2501;51.214;6.768;2023-02-24T12:21:33;100424.88;;;4.13;93.13
4972;BME280;2501;51.214;6.768;2023-02-24T12:24:04;100418.44;;;4.68;92.77
4972;BME280;2501;51.214;6.768;2023-02-24T12:26:43;100422.09;;;4.75;91.76
4972;BME280;2501;51.214;6.768;2023-02-24T12:29:35;100407.72;;;4.54;91.77
4972;BME280;2501;51.214;6.768;2023-02-24T12:32:12;100416.25;;;4.83;90.94
4972;BME280;2501;51.214;6.768;2023-02-24T12:34:55;100408.34;;;4.44;91.87
4972;BME280;2501;51.214;6.768;2023-02-24T12:37:38;100405.13;;;4.54;92.27
4972;BME280;2501;51.214;6.768;2023-02-24T12:40:15;100403.13;;;4.43;92.89
4972;BME280;2501;51.214;6.768;2023-02-24T12:42:55;100399.06;;;4.54;92.28
4972;BME280;2501;51.214;6.768;2023-02-24T12:45:35;100392.63;;;4.38;92.47
4972;BME280;2501;51.214;6.768;2023-02-24T12:48:17;100392.31;;;4.26;92.56
4972;BME280;2501;51.214;6.768;2023-02-24T12:50:55;100384.28;;;4.15;94.00
4972;BME280;2501;51.214;6.768;2023-02-24T12:53:34;100381.59;;;4.12;94.47
4972;BME280;2501;51.214;6.768;2023-02-24T12:56:12;100372.88;;;4.10;94.78
4972;BME280;2501;51.214;6.768;2023-02-24T12:58:45;100370.72;;;4.27;95.21
4972;BME280;2501;51.214;6.768;2023-02-24T13:01:21;100367.88;;;4.18;95.01
4972;BME280;2501;51.214;6.768;2023-02-24T13:03:58;100355.06;;;4.24;94.98
4972;BME280;2501;51.214;6.768;2023-02-24T13:06:40;100356.50;;;4.13;95.49
4972;BME280;2501;51.214;6.768;2023-02-24T13:09:20;100347.28;;;4.60;95.99
4972;BME280;2501;51.214;6.768;2023-02-24T13:11:55;100347.06;;;4.52;95.68
4972;BME280;2501;51.214;6.768;2023-02-24T13:14:28;100335.16;;;4.25;95.52
4972;BME280;2501;51.214;6.768;2023-02-24T13:19:49;100329.91;;;4.58;95.37
4972;BME280;2501;51.214;6.768;2023-02-24T13:22:25;100328.47;;;4.34;96.72
4972;BME280;2501;51.214;6.768;2023-02-24T13:24:59;100328.66;;;4.42;96.44
4972;BME280;2501;51.214;6.768;2023-02-24T13:27:31;100314.84;;;4.43;96.87
4972;BME280;2501;51.214;6.768;2023-02-24T13:30:05;100320.59;;;4.30;97.35
4972;BME280;2501;51.214;6.768;2023-02-24T13:32:36;100320.19;;;4.49;98.06
4972;BME280;2501;51.214;6.768;2023-02-24T13:35:30;100314.56;;;4.31;97.70
4972;BME280;2501;51.214;6.768;2023-02-24T13:38:21;100310.38;;;4.37;96.95
4972;BME280;2501;51.214;6.768;2023-02-24T13:41:04;100309.25;;;4.26;96.64
4972;BME280;2501;51.214;6.768;2023-02-24T13:43:32;100304.97;;;4.28;98.36
4972;BME280;2501;51.214;6.768;2023-02-24T13:46:12;100295.50;;;4.30;98.86
4972;BME280;2501;51.214;6.768;2023-02-24T13:48:53;100290.63;;;4.44;100.00
4972;BME280;2501;51.214;6.768;2023-02-24T13:51:51;100289.88;;;4.48;99.91
4972;BME280;2501;51.214;6.768;2023-02-24T13:57:40;100277.00;;;4.54;99.25
4972;BME280;2501;51.214;6.768;2023-02-24T14:00:18;100276.47;;;4.30;98.41
4972;BME280;2501;51.214;6.768;2023-02-24T14:02:51;100278.69;;;4.52;99.13
4972;BME280;2501;51.214;6.768;2023-02-24T14:05:23;100268.69;;;4.70;98.23
4972;BME280;2501;51.214;6.768;2023-02-24T14:07:53;100265.72;;;4.53;98.05
4972;BME280;2501;51.214;6.768;2023-02-24T14:10:23;100274.31;;;4.51;98.60
4972;BME280;2501;51.214;6.768;2023-02-24T14:13:02;100265.00;;;4.59;99.06
4972;BME280;2501;51.214;6.768;2023-02-24T14:15:33;100266.59;;;4.54;98.62
4972;BME280;2501;51.214;6.768;2023-02-24T14:18:04;100257.91;;;4.52;98.11
4972;BME280;2501;51.214;6.768;2023-02-24T14:20:33;100253.41;;;4.43;98.96
4972;BME280;2501;51.214;6.768;2023-02-24T14:23:18;100263.97;;;4.52;99.13
4972;BME280;2501;51.214;6.768;2023-02-24T14:25:52;100269.00;;;4.45;99.33
4972;BME280;2501;51.214;6.768;2023-02-24T14:28:27;100256.94;;;4.47;99.26
4972;BME280;2501;51.214;6.768;2023-02-24T14:30:58;100250.53;;;4.31;99.87
4972;BME280;2501;51.214;6.768;2023-02-24T14:33:30;100245.81;;;4.52;99.77
4972;BME280;2501;51.214;6.768;2023-02-24T14:36:00;100237.31;;;4.22;100.00
4972;BME280;2501;51.214;6.768;2023-02-24T14:38:33;100243.88;;;4.44;100.00
4972;BME280;2501;51.214;6.768;2023-02-24T14:41:03;100231.13;;;4.54;100.00
4972;BME280;2501;51.214;6.768;2023-02-24T14:43:39;100231.94;;;4.52;99.79
4972;BME280;2501;51.214;6.768;2023-02-24T14:46:07;100237.34;;;4.61;99.63
4972;BME280;2501;51.214;6.768;2023-02-24T14:48:36;100234.38;;;4.44;99.36
4972;BME280;2501;51.214;6.768;2023-02-24T14:51:09;100227.13;;;4.70;99.86
4972;BME280;2501;51.214;6.768;2023-02-24T14:53:44;100225.34;;;4.66;98.96
4972;BME280;2501;51.214;6.768;2023-02-24T14:56:13;100225.19;;;4.60;98.34
4972;BME280;2501;51.214;6.768;2023-02-24T14:58:47;100226.22;;;4.67;98.39
4972;BME280;2501;51.214;6.768;2023-02-24T15:01:20;100227.94;;;4.68;98.10
4972;BME280;2501;51.214;6.768;2023-02-24T15:03:51;100227.91;;;4.65;98.59
4972;BME280;2501;51.214;6.768;2023-02-24T15:06:23;100225.59;;;4.78;98.57
4972;BME280;2501;51.214;6.768;2023-02-24T15:08:56;100222.00;;;4.73;98.25
4972;BME280;2501;51.214;6.768;2023-02-24T15:11:27;100219.41;;;4.73;98.53
4972;BME280;2501;51.214;6.768;2023-02-24T15:14:00;100210.59;;;4.65;98.74
4972;BME280;2501;51.214;6.768;2023-02-24T15:16:35;100202.53;;;4.95;98.41